Main page
METAR-TAF:

METAR-TAF

Airports :

Tonopah Airport

Tonopah, Nevada, United States

latitude: 38-03-37N, longitude: 117-05-14W, elevation: 5425 ft

Current weather observation

The report was made 57 minutes ago, at 21:56 UTC
Wind 10 mph from the South with gusts up to 25 mph
Temperature 95°F
Humidity 13%
Pressure 30.15 in. Hg
Visibility: 10 miles
Clear sky

METAR: KTPH 172156Z AUTO 17009G22KT 10SM CLR 35/02 A3015 RMK AO2 SLP112 T03500022

Time: 15:53 (22:53 UTC)

Forecast

The report was made 5 hours and 33 minutes ago, at 17:20 UTC
Forecast valid from 17 at 18 UTC to 18 at 18 UTC
Wind 14 mph from the South/Southwest with gusts up to 25 mph
Visibility: 6 miles
Few clouds at a height of 12000 ft
From 18 at 0600 UTC
Wind 7 mph from variable directions
Visibility: 6 miles
Few clouds at a height of 12000 ft

TAF: KTPH 171720Z 1718/1818 20012G22KT P6SM FEW120 FM180600 VRB06KT P6SM FEW120

Weather observations and forecasts of more than 4000 airports (METAR and TAF reports).

The available stations are represented by yellow and red dots on the map.

Hover mouse over dot to see the name of the station.

Then click to see weather observations and forecasts.

To change the map : click on the green buttons with a black cross to zoom in, on the green button with a dash to zoom out, or on the green arrows for adjacent maps.


METAR-TAF: